createdAt,value
2019-01-19T00:01:17.071Z,5.37
2019-01-19T00:04:43.690Z,5.07
2019-01-19T00:07:37.490Z,3.83
2019-01-19T00:10:55.061Z,3.80
2019-01-19T00:13:47.330Z,7.00
2019-01-19T00:17:02.281Z,4.83
2019-01-19T00:20:01.445Z,3.90
2019-01-19T00:22:56.820Z,3.67
2019-01-19T00:25:51.121Z,3.53
2019-01-19T00:28:37.210Z,3.47
2019-01-19T00:31:23.739Z,3.67
2019-01-19T00:35:08.674Z,3.03
2019-01-19T00:38:10.445Z,3.20
2019-01-19T00:41:14.711Z,3.10
2019-01-19T00:44:08.496Z,3.23
2019-01-19T00:47:14.631Z,3.90
2019-01-19T00:50:17.082Z,3.53
2019-01-19T00:53:20.782Z,3.70
2019-01-19T00:56:22.837Z,3.20
2019-01-19T00:59:04.177Z,2.73
2019-01-19T01:02:06.306Z,3.03
2019-01-19T01:04:57.387Z,3.00
2019-01-19T01:08:01.722Z,2.90
2019-01-19T01:11:16.428Z,2.87
2019-01-19T01:14:46.284Z,3.00
2019-01-19T01:17:43.530Z,2.90
2019-01-19T01:20:39.618Z,2.83
2019-01-19T01:23:51.470Z,3.87
2019-01-19T01:27:21.295Z,3.57
2019-01-19T01:30:28.471Z,4.50
2019-01-19T01:33:36.016Z,6.20
2019-01-19T01:36:49.373Z,4.60
2019-01-19T01:40:12.754Z,4.20
2019-01-19T01:43:16.520Z,4.17
2019-01-19T01:46:46.239Z,2.97
2019-01-19T01:50:03.631Z,3.10
2019-01-19T01:53:12.459Z,3.67
2019-01-19T01:55:49.697Z,2.77
2019-01-19T01:59:10.033Z,2.17
2019-01-19T02:02:04.860Z,2.60
2019-01-19T02:05:24.921Z,2.20
2019-01-19T02:08:32.697Z,2.57
2019-01-19T02:11:52.409Z,2.10
2019-01-19T02:14:29.819Z,2.40
2019-01-19T02:17:40.391Z,2.63
2019-01-19T02:20:36.710Z,2.93
2019-01-19T02:23:50.395Z,2.50
2019-01-19T02:26:51.381Z,3.10
2019-01-19T02:30:13.481Z,2.30
2019-01-19T02:33:28.361Z,2.23
2019-01-19T02:36:50.236Z,3.00
2019-01-19T02:39:54.235Z,2.50
2019-01-19T02:42:55.655Z,2.47
2019-01-19T02:45:57.929Z,2.37
2019-01-19T02:48:57.404Z,2.20
2019-01-19T02:52:17.971Z,2.57
2019-01-19T02:55:29.170Z,2.57
2019-01-19T02:58:52.518Z,2.83
2019-01-19T03:01:53.975Z,3.07
2019-01-19T03:04:57.184Z,4.00
2019-01-19T03:07:44.623Z,2.90
2019-01-19T03:10:50.872Z,3.53
2019-01-19T03:14:17.781Z,4.10
2019-01-19T03:17:47.548Z,4.30
2019-01-19T03:21:04.241Z,4.50
2019-01-19T03:24:07.141Z,4.20
2019-01-19T03:26:48.480Z,5.20
2019-01-19T03:30:00.596Z,4.73
2019-01-19T03:33:24.158Z,5.73
2019-01-19T03:36:22.322Z,6.30
2019-01-19T03:39:47.574Z,6.97
2019-01-19T03:43:14.374Z,6.67
2019-01-19T03:46:32.536Z,7.77
2019-01-19T03:49:25.897Z,10.10
2019-01-19T03:52:10.430Z,10.07
2019-01-19T03:55:14.769Z,10.17
2019-01-19T03:58:10.822Z,9.53
2019-01-19T04:01:05.411Z,10.33
2019-01-19T04:04:02.039Z,10.83
2019-01-19T04:07:17.048Z,11.90
2019-01-19T04:10:28.603Z,11.63
2019-01-19T04:13:38.428Z,11.83
2019-01-19T04:16:48.075Z,13.37
2019-01-19T04:20:05.884Z,14.53
2019-01-19T04:22:49.345Z,16.17
2019-01-19T04:25:47.780Z,16.63
2019-01-19T04:28:21.290Z,16.97
2019-01-19T04:30:52.727Z,16.83
2019-01-19T04:33:24.205Z,16.47
2019-01-19T04:35:55.753Z,17.97
2019-01-19T04:38:27.244Z,20.33
2019-01-19T04:40:58.680Z,19.87
2019-01-19T04:43:29.957Z,20.13
2019-01-19T04:46:01.359Z,20.47
2019-01-19T04:48:33.523Z,21.40
2019-01-19T04:51:05.000Z,21.97
2019-01-19T04:53:36.420Z,23.00
2019-01-19T04:56:07.918Z,23.33
2019-01-19T04:58:39.471Z,21.73
2019-01-19T05:01:11.060Z,24.60
2019-01-19T05:03:42.580Z,23.47
2019-01-19T05:06:13.976Z,23.33
2019-01-19T05:08:45.384Z,24.03
2019-01-19T05:11:16.931Z,25.07
2019-01-19T05:13:48.230Z,26.13
2019-01-19T05:16:19.640Z,26.60
2019-01-19T05:18:51.091Z,26.93
2019-01-19T05:21:22.876Z,25.97
2019-01-19T05:23:55.318Z,25.50
2019-01-19T05:26:26.845Z,26.27
2019-01-19T05:28:58.330Z,25.87
2019-01-19T05:31:29.803Z,28.03
2019-01-19T05:34:01.217Z,26.03
2019-01-19T05:36:38.311Z,27.13
2019-01-19T05:39:08.528Z,27.20
2019-01-19T05:41:39.891Z,28.23
2019-01-19T05:44:11.357Z,28.73
2019-01-19T05:46:42.803Z,29.67
2019-01-19T05:49:14.166Z,28.87
2019-01-19T05:51:45.479Z,28.97
2019-01-19T05:54:16.880Z,28.33
2019-01-19T05:56:48.298Z,30.33
2019-01-19T05:59:19.636Z,29.33
2019-01-19T06:01:51.164Z,28.07
2019-01-19T06:04:22.526Z,27.07
2019-01-19T06:06:53.981Z,27.30
2019-01-19T06:09:25.354Z,28.07
2019-01-19T06:11:56.834Z,27.97
2019-01-19T06:14:28.151Z,28.23
2019-01-19T06:16:59.584Z,27.27
2019-01-19T06:19:31.222Z,26.13
2019-01-19T06:22:02.789Z,28.50
2019-01-19T06:24:34.367Z,26.40
2019-01-19T06:27:05.729Z,28.60
2019-01-19T06:29:37.194Z,28.60
2019-01-19T06:32:08.601Z,28.07
2019-01-19T06:34:40.241Z,28.33
2019-01-19T06:37:11.792Z,27.60
2019-01-19T06:39:43.332Z,28.20
2019-01-19T06:42:14.880Z,26.93
2019-01-19T06:44:46.726Z,26.73
2019-01-19T06:47:18.248Z,29.10
2019-01-19T06:49:49.740Z,28.23
2019-01-19T06:52:21.164Z,27.43
2019-01-19T06:54:52.623Z,25.87
2019-01-19T06:57:24.122Z,26.90
2019-01-19T06:59:55.584Z,25.50
2019-01-19T07:02:27.100Z,24.17
2019-01-19T07:04:58.621Z,28.03
2019-01-19T07:07:30.113Z,25.23
2019-01-19T07:10:01.616Z,23.93
2019-01-19T07:12:33.079Z,22.90
2019-01-19T07:15:04.791Z,22.43
2019-01-19T07:17:36.353Z,21.37
2019-01-19T07:20:09.201Z,21.80
2019-01-19T07:22:40.612Z,20.77
2019-01-19T07:25:12.163Z,20.30
2019-01-19T07:27:43.638Z,19.80
2019-01-19T07:30:16.891Z,19.77
2019-01-19T07:32:48.893Z,20.00
2019-01-19T07:35:20.472Z,24.07
2019-01-19T07:37:51.846Z,20.03
2019-01-19T07:40:23.275Z,20.10
2019-01-19T07:42:58.400Z,23.70
2019-01-19T07:45:29.754Z,22.07
2019-01-19T07:48:01.072Z,20.50
2019-01-19T07:50:32.621Z,18.33
2019-01-19T07:53:04.089Z,18.30
2019-01-19T07:55:35.620Z,18.83
2019-01-19T07:58:07.090Z,18.67
2019-01-19T08:00:38.499Z,18.60
2019-01-19T08:03:09.909Z,18.27
2019-01-19T08:05:41.334Z,18.17
2019-01-19T08:08:12.760Z,17.93
2019-01-19T08:10:44.205Z,16.93
2019-01-19T08:13:15.541Z,16.30
2019-01-19T08:15:47.155Z,18.13
2019-01-19T08:18:18.560Z,17.17
2019-01-19T08:20:50.906Z,17.47
2019-01-19T08:23:22.585Z,17.23
2019-01-19T08:25:54.071Z,17.03
2019-01-19T08:28:25.631Z,16.47
2019-01-19T08:30:57.155Z,17.57
2019-01-19T08:33:28.590Z,19.50
2019-01-19T08:36:00.101Z,19.33
2019-01-19T08:38:32.893Z,16.73
2019-01-19T08:41:04.350Z,15.77
2019-01-19T08:43:41.133Z,16.03
2019-01-19T08:46:12.452Z,17.17
2019-01-19T08:48:43.958Z,17.73
2019-01-19T08:51:15.369Z,15.43
2019-01-19T08:53:46.835Z,16.30
2019-01-19T08:56:18.311Z,16.00
2019-01-19T08:58:49.802Z,14.87
2019-01-19T09:01:21.350Z,15.47
2019-01-19T09:03:52.679Z,15.27
2019-01-19T09:06:24.078Z,15.67
2019-01-19T09:08:55.505Z,14.60
2019-01-19T09:11:26.888Z,15.03
2019-01-19T09:13:58.443Z,14.70
2019-01-19T09:16:29.767Z,14.67
2019-01-19T09:19:01.143Z,14.83
2019-01-19T09:21:32.539Z,14.67
2019-01-19T09:24:07.483Z,15.07
2019-01-19T09:26:38.762Z,14.40
2019-01-19T09:29:10.184Z,14.60
2019-01-19T09:31:41.644Z,15.67
2019-01-19T09:34:13.168Z,14.87
2019-01-19T09:36:44.728Z,17.00
2019-01-19T09:39:16.379Z,14.50
2019-01-19T09:41:47.731Z,15.00
2019-01-19T09:44:19.120Z,14.70
2019-01-19T09:46:50.475Z,15.13
2019-01-19T09:49:21.885Z,13.67
2019-01-19T09:51:53.284Z,14.70
2019-01-19T09:54:24.960Z,17.57
2019-01-19T09:56:56.448Z,15.60
2019-01-19T09:59:27.819Z,17.83
2019-01-19T10:01:59.177Z,17.47
2019-01-19T10:04:30.631Z,14.53
2019-01-19T10:07:02.004Z,16.00
2019-01-19T10:09:33.469Z,21.17
2019-01-19T10:12:04.980Z,20.50
2019-01-19T10:14:36.381Z,14.33
2019-01-19T10:17:07.861Z,14.47
2019-01-19T10:19:39.362Z,15.77
2019-01-19T10:22:13.992Z,14.47
2019-01-19T10:24:45.441Z,15.27
2019-01-19T10:27:16.926Z,16.10
2019-01-19T10:29:48.325Z,16.97
2019-01-19T10:32:19.805Z,15.73
2019-01-19T10:34:51.162Z,15.13
2019-01-19T10:37:22.649Z,13.77
2019-01-19T10:39:54.131Z,13.37
2019-01-19T10:42:25.519Z,15.50
2019-01-19T10:44:56.935Z,13.03
2019-01-19T10:47:28.323Z,12.80
2019-01-19T10:49:59.871Z,12.33
2019-01-19T10:52:31.251Z,12.97
2019-01-19T10:55:02.617Z,11.77
2019-01-19T10:57:33.972Z,11.37
2019-01-19T11:00:06.487Z,11.73
2019-01-19T11:02:38.016Z,12.97
2019-01-19T11:05:12.145Z,13.03
2019-01-19T11:07:47.663Z,12.40
2019-01-19T11:10:21.383Z,11.97
2019-01-19T11:12:52.806Z,10.50
2019-01-19T11:15:24.642Z,10.93
2019-01-19T11:17:56.119Z,11.13
2019-01-19T11:20:29.010Z,11.90
2019-01-19T11:23:01.458Z,11.73
2019-01-19T11:25:32.932Z,11.47
2019-01-19T11:28:04.833Z,12.13
2019-01-19T11:30:36.161Z,11.40
2019-01-19T11:33:07.541Z,11.47
2019-01-19T11:35:38.865Z,12.13
2019-01-19T11:38:12.020Z,11.80
2019-01-19T11:40:43.603Z,11.67
2019-01-19T11:43:15.077Z,12.60
2019-01-19T11:45:46.610Z,12.00
2019-01-19T11:48:18.171Z,13.67
2019-01-19T11:50:49.681Z,13.57
2019-01-19T11:53:21.119Z,11.87
2019-01-19T11:55:52.637Z,13.37
2019-01-19T11:58:24.146Z,15.93
2019-01-19T12:00:55.654Z,16.53
2019-01-19T12:03:27.024Z,17.33
2019-01-19T12:05:58.599Z,15.77
2019-01-19T12:08:30.135Z,16.63
2019-01-19T12:11:01.682Z,11.87
2019-01-19T12:13:33.204Z,10.23
2019-01-19T12:16:04.667Z,10.77
2019-01-19T12:18:36.120Z,11.90
2019-01-19T12:21:07.566Z,14.60
2019-01-19T12:23:39.171Z,11.70
2019-01-19T12:26:10.493Z,11.13
2019-01-19T12:28:41.963Z,10.57
2019-01-19T12:31:14.631Z,9.33
2019-01-19T12:33:46.016Z,10.77
2019-01-19T12:36:17.939Z,10.93
2019-01-19T12:38:49.604Z,12.17
2019-01-19T12:41:21.111Z,12.10
2019-01-19T12:43:52.721Z,11.10
2019-01-19T12:46:24.320Z,14.00
2019-01-19T12:48:55.931Z,11.07
2019-01-19T12:51:27.554Z,12.57
2019-01-19T12:53:59.721Z,10.73
2019-01-19T12:56:31.199Z,11.73
2019-01-19T12:59:02.675Z,11.63
2019-01-19T13:01:34.141Z,10.87
2019-01-19T13:04:05.951Z,20.03
2019-01-19T13:06:51.722Z,14.07
2019-01-19T13:09:29.178Z,13.30
2019-01-19T13:12:29.647Z,13.87
2019-01-19T13:15:44.475Z,11.50
2019-01-19T13:18:49.119Z,12.67
2019-01-19T13:22:02.666Z,14.00
2019-01-19T13:25:06.876Z,13.77
2019-01-19T13:28:35.426Z,18.13
2019-01-19T13:31:50.763Z,13.07
2019-01-19T13:34:52.848Z,12.20
2019-01-19T13:37:50.441Z,20.03
2019-01-19T13:41:01.946Z,28.77
2019-01-19T13:44:27.992Z,19.33
2019-01-19T13:47:33.671Z,33.70
2019-01-19T13:51:15.489Z,27.40
2019-01-19T13:54:09.080Z,21.27
2019-01-19T13:57:09.359Z,16.03
2019-01-19T14:00:18.394Z,15.43
2019-01-19T14:03:35.896Z,15.87
2019-01-19T14:06:39.016Z,13.40
2019-01-19T14:09:48.672Z,12.47
2019-01-19T14:13:24.930Z,16.70
2019-01-19T14:16:41.470Z,13.23
2019-01-19T14:19:56.044Z,35.13
2019-01-19T14:23:00.302Z,20.50
2019-01-19T14:26:22.110Z,21.77
2019-01-19T14:29:46.089Z,13.07
2019-01-19T14:32:33.608Z,14.33
2019-01-19T14:35:19.338Z,14.33
2019-01-19T14:38:26.111Z,16.17
2019-01-19T14:41:19.929Z,20.17
2019-01-19T14:44:17.641Z,17.80
2019-01-19T14:47:08.520Z,15.20
2019-01-19T14:50:17.671Z,13.33
2019-01-19T14:53:32.527Z,13.90
2019-01-19T14:56:32.210Z,13.40
2019-01-19T14:59:49.601Z,13.57
2019-01-19T15:03:06.590Z,13.00
2019-01-19T15:05:45.058Z,12.40
2019-01-19T15:08:43.118Z,16.67
2019-01-19T15:11:59.863Z,17.67
2019-01-19T15:15:01.057Z,26.00
2019-01-19T15:18:08.387Z,17.67
2019-01-19T15:21:10.841Z,14.17
2019-01-19T15:24:09.917Z,16.07
2019-01-19T15:27:22.875Z,14.60
2019-01-19T15:30:38.323Z,17.10
2019-01-19T15:33:55.049Z,15.70
2019-01-19T15:37:07.760Z,12.37
2019-01-19T15:40:13.312Z,13.83
2019-01-19T15:42:57.230Z,12.67
2019-01-19T15:46:06.524Z,14.07
2019-01-19T15:48:48.698Z,14.30
2019-01-19T15:52:03.870Z,14.90
2019-01-19T15:55:13.726Z,14.83
2019-01-19T15:58:07.802Z,12.90
2019-01-19T16:01:01.163Z,13.87
2019-01-19T16:03:57.090Z,15.37
2019-01-19T16:07:05.063Z,14.40
2019-01-19T16:10:29.039Z,12.20
2019-01-19T16:13:49.364Z,13.77
2019-01-19T16:17:11.159Z,13.87
2019-01-19T16:20:21.862Z,14.57
2019-01-19T16:23:19.710Z,15.33
2019-01-19T16:26:36.518Z,15.23
2019-01-19T16:29:36.739Z,14.10
2019-01-19T16:32:45.321Z,14.60
2019-01-19T16:35:40.811Z,14.30
2019-01-19T16:38:46.334Z,13.57
2019-01-19T16:42:03.310Z,13.23
2019-01-19T16:45:20.030Z,15.30
2019-01-19T16:48:12.384Z,13.83
2019-01-19T16:50:52.326Z,14.43
2019-01-19T16:54:17.084Z,15.87
2019-01-19T16:57:29.706Z,13.73
2019-01-19T17:00:46.384Z,15.07
2019-01-19T17:03:41.408Z,15.20
2019-01-19T17:06:35.380Z,15.40
2019-01-19T17:09:32.875Z,15.87
2019-01-19T17:12:39.913Z,14.67
2019-01-19T17:15:43.880Z,15.67
2019-01-19T17:18:39.703Z,15.23
2019-01-19T17:22:03.769Z,14.67
2019-01-19T17:25:13.202Z,16.60
2019-01-19T17:28:10.260Z,15.50
2019-01-19T17:31:25.204Z,14.97
2019-01-19T17:34:22.880Z,18.47
2019-01-19T17:37:34.585Z,14.97
2019-01-19T17:40:42.129Z,16.30
2019-01-19T17:43:50.851Z,14.07
2019-01-19T17:46:48.016Z,16.13
2019-01-19T17:49:35.001Z,16.57
2019-01-19T17:52:45.905Z,14.13
2019-01-19T17:56:21.986Z,17.30
2019-01-19T17:59:25.177Z,15.63
2019-01-19T18:02:54.982Z,15.40
2019-01-19T18:05:48.600Z,23.33
2019-01-19T18:08:48.885Z,17.30
2019-01-19T18:11:57.063Z,20.57
2019-01-19T18:14:56.723Z,17.03
2019-01-19T18:18:17.189Z,15.73
2019-01-19T18:21:31.421Z,17.00
2019-01-19T18:24:53.571Z,16.77
2019-01-19T18:28:00.764Z,17.90
2019-01-19T18:31:14.643Z,15.40
2019-01-19T18:34:11.466Z,18.20
2019-01-19T18:37:22.355Z,17.50
2019-01-19T18:40:47.988Z,16.83
2019-01-19T18:43:58.639Z,15.53
2019-01-19T18:46:57.712Z,14.50
2019-01-19T18:50:08.341Z,15.77
2019-01-19T18:53:17.573Z,14.67
2019-01-19T18:56:13.421Z,14.60
2019-01-19T18:59:37.131Z,16.53
2019-01-19T19:02:32.051Z,16.73
2019-01-19T19:05:34.649Z,15.83
2019-01-19T19:08:45.029Z,20.57
2019-01-19T19:11:51.360Z,15.83
2019-01-19T19:14:50.336Z,17.57
2019-01-19T19:17:51.308Z,19.60
2019-01-19T19:20:53.110Z,17.07
2019-01-19T19:24:05.746Z,14.20
2019-01-19T19:27:26.161Z,12.97
2019-01-19T19:30:36.830Z,13.43
2019-01-19T19:34:00.567Z,12.33
2019-01-19T19:37:13.164Z,12.67
2019-01-19T19:40:11.029Z,12.87
2019-01-19T19:42:53.827Z,13.20
2019-01-19T19:46:08.573Z,13.80
2019-01-19T19:49:19.140Z,15.80
2019-01-19T19:52:04.427Z,18.33
2019-01-19T19:54:37.168Z,21.03
2019-01-19T19:57:10.141Z,17.63
2019-01-19T19:59:41.540Z,17.03
2019-01-19T20:02:12.906Z,17.23
2019-01-19T20:04:44.439Z,16.50
2019-01-19T20:07:15.890Z,18.83
2019-01-19T20:09:47.398Z,14.30
2019-01-19T20:12:18.977Z,17.30
2019-01-19T20:14:50.451Z,19.33
2019-01-19T20:17:21.894Z,19.83
2019-01-19T20:19:53.339Z,16.77
2019-01-19T20:22:24.660Z,15.03
2019-01-19T20:24:56.109Z,12.60
2019-01-19T20:27:27.600Z,13.37
2019-01-19T20:30:00.241Z,13.50
2019-01-19T20:32:32.727Z,15.73
2019-01-19T20:35:04.338Z,22.33
2019-01-19T20:37:35.765Z,20.90
2019-01-19T20:40:08.047Z,19.23
2019-01-19T20:42:39.567Z,16.73
2019-01-19T20:45:12.286Z,17.30
2019-01-19T20:47:43.679Z,17.90
2019-01-19T20:50:15.236Z,17.77
2019-01-19T20:52:46.649Z,19.90
2019-01-19T20:55:18.162Z,21.33
2019-01-19T20:57:50.667Z,17.90
2019-01-19T21:00:22.292Z,18.50
2019-01-19T21:02:55.082Z,22.00
2019-01-19T21:05:26.548Z,19.30
2019-01-19T21:07:58.121Z,21.13
2019-01-19T21:10:31.887Z,19.07
2019-01-19T21:13:02.858Z,20.87
2019-01-19T21:15:35.444Z,18.77
2019-01-19T21:18:06.992Z,20.83
2019-01-19T21:20:38.302Z,19.47
2019-01-19T21:23:09.668Z,17.83
2019-01-19T21:25:41.199Z,18.10
2019-01-19T21:28:12.809Z,13.30
2019-01-19T21:30:45.480Z,17.83
2019-01-19T21:33:16.992Z,19.07
2019-01-19T21:35:48.457Z,19.27
2019-01-19T21:38:20.040Z,17.13
2019-01-19T21:40:52.661Z,18.17
2019-01-19T21:43:27.318Z,19.23
2019-01-19T21:46:31.839Z,20.23
2019-01-19T21:49:03.340Z,17.53
2019-01-19T21:51:34.742Z,20.77
2019-01-19T21:54:06.569Z,21.37
2019-01-19T21:56:37.972Z,18.00
2019-01-19T21:59:09.511Z,18.47
2019-01-19T22:01:41.002Z,18.47
2019-01-19T22:04:12.371Z,20.60
2019-01-19T22:06:43.830Z,24.07
2019-01-19T22:09:15.460Z,24.57
2019-01-19T22:11:47.012Z,28.30
2019-01-19T22:14:18.739Z,29.00
2019-01-19T22:16:50.352Z,27.27
2019-01-19T22:19:22.028Z,31.53
2019-01-19T22:21:53.580Z,26.83
2019-01-19T22:24:25.163Z,32.90
2019-01-19T22:26:56.909Z,36.57
2019-01-19T22:29:28.502Z,41.07
2019-01-19T22:32:00.224Z,30.03
2019-01-19T22:34:31.833Z,34.77
2019-01-19T22:37:03.377Z,30.90
2019-01-19T22:39:34.999Z,23.30
2019-01-19T22:42:06.645Z,24.03
2019-01-19T22:44:38.255Z,23.60
2019-01-19T22:47:09.863Z,39.83
2019-01-19T22:49:41.455Z,49.10
2019-01-19T22:52:12.995Z,28.87
2019-01-19T22:54:44.651Z,32.20
2019-01-19T22:57:16.100Z,33.67
2019-01-19T22:59:51.498Z,23.37
2019-01-19T23:02:23.261Z,53.50
2019-01-19T23:04:54.870Z,46.97
2019-01-19T23:07:26.587Z,48.43
2019-01-19T23:09:59.231Z,45.27
2019-01-19T23:12:30.863Z,57.70
2019-01-19T23:15:03.472Z,49.10
2019-01-19T23:17:35.111Z,72.57
2019-01-19T23:20:07.386Z,49.90
2019-01-19T23:22:39.043Z,49.00
2019-01-19T23:25:10.952Z,57.87
2019-01-19T23:27:42.544Z,54.53
2019-01-19T23:30:14.378Z,60.80
2019-01-19T23:32:46.068Z,74.13
2019-01-19T23:35:17.682Z,55.63
2019-01-19T23:37:49.180Z,53.87
2019-01-19T23:40:22.199Z,38.53
2019-01-19T23:42:53.770Z,40.83
2019-01-19T23:45:25.287Z,33.33
2019-01-19T23:47:56.919Z,38.07
2019-01-19T23:50:28.459Z,39.40
2019-01-19T23:52:59.930Z,45.23
2019-01-19T23:55:31.374Z,31.77
2019-01-19T23:58:02.897Z,32.97
